Time;durP1;ratioP1;P1;durP2;ratioP2;P2;SDS_P1;SDS_P2;PMS_P1;PMS_P2;Temp;Humidity;BMP_temperature;BMP_pressure;BME280_temperature;BME280_humidity;BME280_pressure;Samples;Min_cycle;Max_cycle;Signal;HPM_P1;HPM_P2
2022/02/19 00:01:24;;;;;;;2.97;1.33;;;;;;;;;;5028772;28;20231;-71
2022/02/19 00:03:52;;;;;;;0.70;0.70;;;;;;;;;;5027309;28;20208;-72
2022/02/19 00:06:19;;;;;;;4.90;1.07;;;;;;;;;;5029047;28;20200;-72
2022/02/19 00:08:48;;;;;;;8.17;1.87;;;;;;;;;;5028191;28;20283;-73
2022/02/19 00:11:15;;;;;;;3.57;1.53;;;;;;;;;;5027835;28;20200;-71
2022/02/19 00:13:43;;;;;;;1.00;0.63;;;;;;;;;;5028333;28;20262;-72
2022/02/19 00:16:10;;;;;;;4.27;1.03;;;;;;;;;;5029500;28;20223;-71
2022/02/19 00:18:38;;;;;;;5.63;2.13;;;;;;;;;;5027860;28;20211;-70
2022/02/19 00:21:06;;;;;;;0.60;0.40;;;;;;;;;;5026989;28;20227;-71
2022/02/19 00:23:33;;;;;;;2.30;1.23;;;;;;;;;;5025505;28;20207;-71
2022/02/19 00:26:02;;;;;;;4.43;1.40;;;;;;;;;;5027018;28;20298;-71
2022/02/19 00:28:29;;;;;;;2.30;1.00;;;;;;;;;;5027289;28;20286;-72
2022/02/19 00:30:57;;;;;;;2.53;1.13;;;;;;;;;;5027437;28;20684;-72
2022/02/19 00:33:24;;;;;;;3.40;1.10;;;;;;;;;;5025369;28;20204;-72
2022/02/19 00:35:52;;;;;;;3.27;1.20;;;;;;;;;;5028526;28;20219;-71
2022/02/19 00:38:20;;;;;;;7.10;1.37;;;;;;;;;;5029086;28;20196;-72
2022/02/19 00:40:48;;;;;;;7.20;1.90;;;;;;;;;;5029401;28;20197;-70
2022/02/19 00:43:17;;;;;;;3.70;1.13;;;;;;;;;;5028441;28;20208;-72
2022/02/19 00:45:45;;;;;;;10.60;2.00;;;;;;;;;;5027379;28;20214;-73
2022/02/19 00:48:13;;;;;;;1.63;1.17;;;;;;;;;;5029834;28;20200;-71
2022/02/19 00:50:41;;;;;;;0.50;0.30;;;;;;;;;;5028674;28;20287;-71
2022/02/19 00:53:08;;;;;;;3.90;1.07;;;;;;;;;;5029507;28;20207;-72
2022/02/19 00:55:36;;;;;;;1.60;0.77;;;;;;;;;;5028542;28;20247;-71
2022/02/19 00:58:03;;;;;;;4.03;1.07;;;;;;;;;;5027669;28;20567;-71
2022/02/19 01:00:32;;;;;;;3.70;1.30;;;;;;;;;;5027761;28;20203;-71
2022/02/19 01:02:59;;;;;;;4.23;1.50;;;;;;;;;;5026411;28;20196;-71
2022/02/19 01:05:27;;;;;;;3.40;0.90;;;;;;;;;;5027018;28;20193;-71
2022/02/19 01:07:54;;;;;;;6.80;1.13;;;;;;;;;;5027313;28;20197;-71
2022/02/19 01:10:22;;;;;;;1.93;0.70;;;;;;;;;;5033637;28;20198;-71
2022/02/19 01:12:49;;;;;;;11.20;1.90;;;;;;;;;;5030907;28;20629;-71
2022/02/19 01:15:16;;;;;;;2.97;1.03;;;;;;;;;;5030018;28;20232;-71
2022/02/19 01:17:45;;;;;;;2.50;1.30;;;;;;;;;;5030708;28;20692;-72
2022/02/19 01:20:13;;;;;;;9.07;0.70;;;;;;;;;;5030718;28;20708;-70
2022/02/19 01:22:42;;;;;;;1.97;1.10;;;;;;;;;;5031687;28;20219;-71
2022/02/19 01:25:10;;;;;;;7.83;1.20;;;;;;;;;;5029834;28;20680;-71
2022/02/19 01:27:37;;;;;;;0.80;0.80;;;;;;;;;;5032934;28;20196;-70
2022/02/19 01:30:05;;;;;;;7.03;1.07;;;;;;;;;;5031854;28;20534;-71
2022/02/19 01:32:33;;;;;;;10.10;1.60;;;;;;;;;;5029608;28;20204;-71
2022/02/19 01:35:02;;;;;;;0.63;0.63;;;;;;;;;;5032317;28;20231;-72
2022/02/19 01:37:29;;;;;;;1.80;1.17;;;;;;;;;;5031912;28;20212;-71
2022/02/19 01:39:57;;;;;;;0.57;0.40;;;;;;;;;;5032594;28;20565;-71
2022/02/19 01:42:26;;;;;;;4.60;1.30;;;;;;;;;;5032256;28;20591;-71
2022/02/19 01:44:54;;;;;;;3.87;1.03;;;;;;;;;;5031202;28;20290;-71
2022/02/19 01:47:22;;;;;;;1.27;0.47;;;;;;;;;;5031793;28;20200;-71
2022/02/19 01:49:49;;;;;;;2.53;0.37;;;;;;;;;;5032259;28;20203;-72
2022/02/19 01:52:19;;;;;;;2.57;0.83;;;;;;;;;;5030669;28;20196;-73
2022/02/19 01:54:48;;;;;;;1.90;0.63;;;;;;;;;;5030855;28;20230;-70
2022/02/19 01:57:16;;;;;;;0.47;0.33;;;;;;;;;;5032328;28;20271;-71
2022/02/19 01:59:43;;;;;;;4.27;0.90;;;;;;;;;;5032598;28;20204;-72
2022/02/19 02:02:10;;;;;;;11.53;1.83;;;;;;;;;;5030499;28;20697;-70
2022/02/19 02:04:38;;;;;;;5.60;1.37;;;;;;;;;;5031717;28;20708;-71
2022/02/19 02:07:06;;;;;;;2.67;1.00;;;;;;;;;;5032397;28;20196;-71
2022/02/19 02:09:36;;;;;;;4.87;1.20;;;;;;;;;;5033379;28;20197;-70
2022/02/19 02:12:04;;;;;;;3.73;1.50;;;;;;;;;;5031644;28;20562;-71
2022/02/19 02:14:32;;;;;;;4.07;1.30;;;;;;;;;;5030066;28;20661;-70
2022/02/19 02:16:59;;;;;;;1.30;0.67;;;;;;;;;;5031500;28;20255;-70
2022/02/19 02:19:27;;;;;;;5.07;2.03;;;;;;;;;;5030329;28;20197;-71
2022/02/19 02:21:56;;;;;;;2.17;1.30;;;;;;;;;;5029871;28;20196;-70
2022/02/19 02:24:23;;;;;;;1.60;0.67;;;;;;;;;;5031013;28;20206;-71
2022/02/19 02:26:51;;;;;;;3.80;1.03;;;;;;;;;;5029729;28;20208;-71
2022/02/19 02:29:19;;;;;;;3.13;1.00;;;;;;;;;;5032135;28;20196;-71
2022/02/19 02:31:47;;;;;;;6.57;0.93;;;;;;;;;;5030193;28;20246;-72
2022/02/19 02:34:14;;;;;;;2.30;0.97;;;;;;;;;;5030742;28;20199;-70
2022/02/19 02:36:41;;;;;;;1.50;0.80;;;;;;;;;;5030800;28;20224;-71
2022/02/19 02:39:10;;;;;;;2.13;1.50;;;;;;;;;;5031776;28;20596;-71
2022/02/19 02:41:38;;;;;;;5.70;0.97;;;;;;;;;;5028388;28;20538;-70
2022/02/19 02:44:05;;;;;;;4.40;1.60;;;;;;;;;;5032427;28;20567;-70
2022/02/19 02:46:33;;;;;;;5.00;1.50;;;;;;;;;;5030309;28;20201;-71
2022/02/19 02:49:00;;;;;;;7.37;0.80;;;;;;;;;;5030517;28;20192;-71
2022/02/19 02:51:28;;;;;;;2.63;1.30;;;;;;;;;;5029477;28;20196;-71
2022/02/19 02:53:56;;;;;;;2.00;1.00;;;;;;;;;;5032144;28;20282;-72
2022/02/19 02:56:24;;;;;;;3.97;1.17;;;;;;;;;;5026877;28;20236;-72
2022/02/19 02:58:52;;;;;;;2.20;1.80;;;;;;;;;;5029866;28;20649;-70
2022/02/19 03:01:19;;;;;;;7.10;2.00;;;;;;;;;;5031336;28;20235;-70
2022/02/19 03:03:47;;;;;;;1.47;0.50;;;;;;;;;;5027703;28;20287;-71
2022/02/19 03:06:14;;;;;;;10.17;1.97;;;;;;;;;;5030443;28;20243;-70
2022/02/19 03:08:41;;;;;;;2.50;1.07;;;;;;;;;;5030488;28;20200;-71
2022/02/19 03:11:09;;;;;;;3.30;0.90;;;;;;;;;;5030218;28;20213;-72
2022/02/19 03:13:37;;;;;;;3.87;1.50;;;;;;;;;;5029705;28;20193;-71
2022/02/19 03:16:05;;;;;;;4.87;1.53;;;;;;;;;;5031068;28;20224;-71
2022/02/19 03:18:32;;;;;;;2.07;0.70;;;;;;;;;;5029512;28;20188;-71
2022/02/19 03:21:00;;;;;;;1.33;0.50;;;;;;;;;;5030415;28;20261;-70
2022/02/19 03:23:28;;;;;;;1.20;0.37;;;;;;;;;;5028893;28;20676;-71
2022/02/19 03:25:56;;;;;;;3.30;1.30;;;;;;;;;;5030315;28;20193;-70
2022/02/19 03:28:23;;;;;;;3.37;1.03;;;;;;;;;;5030428;28;20196;-70
2022/02/19 03:30:52;;;;;;;2.93;0.73;;;;;;;;;;5030378;28;20196;-71
2022/02/19 03:33:19;;;;;;;6.73;1.73;;;;;;;;;;5027017;28;20200;-71
2022/02/19 03:35:47;;;;;;;5.87;1.23;;;;;;;;;;5030563;28;20306;-71
2022/02/19 03:38:14;;;;;;;4.10;0.53;;;;;;;;;;5029867;28;20204;-71
2022/02/19 03:40:41;;;;;;;27.47;2.20;;;;;;;;;;5030360;28;20196;-72
2022/02/19 03:43:09;;;;;;;10.37;2.07;;;;;;;;;;5025694;28;20219;-72
2022/02/19 03:45:38;;;;;;;2.47;0.70;;;;;;;;;;5028137;28;20650;-71
2022/02/19 03:48:07;;;;;;;2.03;1.00;;;;;;;;;;5027611;28;20585;-70
2022/02/19 03:50:35;;;;;;;2.53;0.67;;;;;;;;;;5027681;28;20196;-71
2022/02/19 03:53:02;;;;;;;3.40;1.07;;;;;;;;;;5028011;28;20287;-71
2022/02/19 03:55:29;;;;;;;1.70;0.50;;;;;;;;;;5026890;28;20255;-71
2022/02/19 03:57:57;;;;;;;1.20;1.07;;;;;;;;;;5027506;28;20202;-70
2022/02/19 04:00:25;;;;;;;3.80;0.93;;;;;;;;;;5029070;28;20203;-71
2022/02/19 04:02:52;;;;;;;4.17;1.00;;;;;;;;;;5027841;28;20196;-71
2022/02/19 04:05:21;;;;;;;3.17;1.53;;;;;;;;;;5029489;28;20200;-70
2022/02/19 04:07:48;;;;;;;1.60;0.83;;;;;;;;;;5026334;28;20957;-71
2022/02/19 04:10:15;;;;;;;1.80;1.00;;;;;;;;;;5029285;28;20200;-70
2022/02/19 04:12:43;;;;;;;8.73;1.77;;;;;;;;;;5030217;28;20196;-70
2022/02/19 04:15:11;;;;;;;9.50;1.47;;;;;;;;;;5030115;28;20304;-71
2022/02/19 04:17:40;;;;;;;7.30;1.27;;;;;;;;;;5029955;28;20554;-71
2022/02/19 04:20:08;;;;;;;5.73;0.93;;;;;;;;;;5029243;28;20204;-70
2022/02/19 04:22:39;;;;;;;4.53;1.30;;;;;;;;;;5028160;28;20196;-70
2022/02/19 04:25:06;;;;;;;2.10;0.73;;;;;;;;;;5027926;28;20246;-71
2022/02/19 04:27:34;;;;;;;1.33;1.23;;;;;;;;;;5029786;28;20681;-70
2022/02/19 04:30:01;;;;;;;15.23;1.00;;;;;;;;;;5030161;28;20189;-70
2022/02/19 04:32:29;;;;;;;1.97;0.77;;;;;;;;;;5028984;28;20528;-71
2022/02/19 04:34:56;;;;;;;3.20;0.77;;;;;;;;;;5028902;28;20231;-70
2022/02/19 04:37:23;;;;;;;6.50;1.23;;;;;;;;;;5028613;28;20235;-71
2022/02/19 04:39:52;;;;;;;4.67;0.90;;;;;;;;;;5027926;28;20295;-70
2022/02/19 04:42:20;;;;;;;1.50;0.70;;;;;;;;;;5028546;28;20204;-71
2022/02/19 04:44:47;;;;;;;3.00;0.80;;;;;;;;;;5031167;28;20201;-71
2022/02/19 04:47:14;;;;;;;2.87;1.20;;;;;;;;;;5033636;28;20203;-70
2022/02/19 04:49:42;;;;;;;3.03;1.23;;;;;;;;;;5033083;28;20197;-71
2022/02/19 04:52:09;;;;;;;1.50;0.70;;;;;;;;;;5032701;28;20214;-70
2022/02/19 04:54:36;;;;;;;0.83;0.33;;;;;;;;;;5033622;28;20658;-70
2022/02/19 04:57:05;;;;;;;4.50;1.03;;;;;;;;;;5031400;28;20227;-70
2022/02/19 04:59:33;;;;;;;1.40;1.30;;;;;;;;;;5033235;28;20195;-70
2022/02/19 05:02:00;;;;;;;2.93;0.57;;;;;;;;;;5031316;28;20609;-70
2022/02/19 05:04:28;;;;;;;1.20;0.40;;;;;;;;;;5032870;28;20312;-70
2022/02/19 05:06:55;;;;;;;8.37;1.30;;;;;;;;;;5032510;28;20199;-71
2022/02/19 05:09:22;;;;;;;2.03;1.40;;;;;;;;;;5033268;28;20211;-73
2022/02/19 05:11:50;;;;;;;2.67;1.10;;;;;;;;;;5030287;28;20197;-71
2022/02/19 05:14:18;;;;;;;0.93;0.60;;;;;;;;;;5033162;28;20654;-71
2022/02/19 05:16:46;;;;;;;1.50;0.63;;;;;;;;;;5033179;28;20554;-71
2022/02/19 05:19:13;;;;;;;2.97;1.17;;;;;;;;;;5032317;28;20204;-71
2022/02/19 05:21:40;;;;;;;4.77;1.00;;;;;;;;;;5032396;28;20215;-71
2022/02/19 05:24:08;;;;;;;0.93;0.60;;;;;;;;;;5033126;28;20204;-71
2022/02/19 05:26:35;;;;;;;8.07;1.30;;;;;;;;;;5033099;28;20192;-71
2022/02/19 05:29:02;;;;;;;5.50;1.10;;;;;;;;;;5033026;28;20200;-71
2022/02/19 05:31:31;;;;;;;1.57;1.47;;;;;;;;;;5031821;28;20239;-72
2022/02/19 05:33:59;;;;;;;7.77;1.53;;;;;;;;;;5031641;28;20201;-72
2022/02/19 05:36:26;;;;;;;2.60;1.33;;;;;;;;;;5031002;28;20224;-70
2022/02/19 05:38:55;;;;;;;6.33;1.33;;;;;;;;;;5032409;28;20295;-71
2022/02/19 05:41:23;;;;;;;3.53;1.33;;;;;;;;;;5030316;28;20228;-71
2022/02/19 05:43:50;;;;;;;1.00;0.50;;;;;;;;;;5032574;28;20199;-72
2022/02/19 05:46:17;;;;;;;8.83;1.00;;;;;;;;;;5032429;28;20226;-71
2022/02/19 05:48:46;;;;;;;0.63;0.30;;;;;;;;;;5032864;28;20870;-71
2022/02/19 05:51:14;;;;;;;4.47;0.83;;;;;;;;;;5031560;28;20213;-70
2022/02/19 05:53:41;;;;;;;1.33;0.27;;;;;;;;;;5032114;28;20211;-73
2022/02/19 05:56:08;;;;;;;4.53;0.70;;;;;;;;;;5031060;28;20652;-72
2022/02/19 05:58:36;;;;;;;4.30;0.87;;;;;;;;;;5032218;28;20204;-71
2022/02/19 06:01:03;;;;;;;5.63;0.63;;;;;;;;;;5028947;28;20600;-71
2022/02/19 06:03:31;;;;;;;5.30;0.57;;;;;;;;;;5032347;28;20204;-71
2022/02/19 06:05:59;;;;;;;1.00;0.67;;;;;;;;;;5030831;28;20196;-70
2022/02/19 06:08:27;;;;;;;0.90;0.43;;;;;;;;;;5030888;28;20197;-71
2022/02/19 06:10:54;;;;;;;3.20;0.80;;;;;;;;;;5029690;28;20207;-72
2022/02/19 06:13:22;;;;;;;3.80;1.27;;;;;;;;;;5031160;28;20680;-71
2022/02/19 06:15:49;;;;;;;0.70;0.70;;;;;;;;;;5030456;28;20204;-72
2022/02/19 06:18:16;;;;;;;0.57;0.50;;;;;;;;;;5031162;28;20196;-71
2022/02/19 06:20:44;;;;;;;3.50;0.93;;;;;;;;;;5028418;28;20212;-71
2022/02/19 06:23:13;;;;;;;3.03;0.47;;;;;;;;;;5031996;28;20192;-71
2022/02/19 06:25:40;;;;;;;1.23;0.70;;;;;;;;;;5030374;28;20200;-70
2022/02/19 06:28:07;;;;;;;0.93;0.23;;;;;;;;;;5029973;28;20235;-71
2022/02/19 06:30:35;;;;;;;1.80;0.50;;;;;;;;;;5030477;28;20581;-72
2022/02/19 06:33:02;;;;;;;0.93;0.17;;;;;;;;;;5032134;28;20200;-72
2022/02/19 06:35:30;;;;;;;4.27;0.63;;;;;;;;;;5030597;28;20220;-72
2022/02/19 06:37:57;;;;;;;1.43;0.67;;;;;;;;;;5030659;28;20232;-71
2022/02/19 06:40:26;;;;;;;5.67;1.10;;;;;;;;;;5027724;28;20197;-71
2022/02/19 06:42:54;;;;;;;2.83;0.83;;;;;;;;;;5028802;28;20219;-71
2022/02/19 06:45:21;;;;;;;1.27;0.60;;;;;;;;;;5030145;28;20204;-72
2022/02/19 06:47:48;;;;;;;4.27;1.13;;;;;;;;;;5029602;28;20302;-73
2022/02/19 06:50:16;;;;;;;4.27;1.03;;;;;;;;;;5031026;28;20269;-72
2022/02/19 06:52:43;;;;;;;8.83;2.10;;;;;;;;;;5029492;28;20662;-71
2022/02/19 06:55:11;;;;;;;0.40;0.33;;;;;;;;;;5030168;28;20212;-70
2022/02/19 06:57:40;;;;;;;0.23;0.13;;;;;;;;;;5030955;28;20227;-71
2022/02/19 07:00:08;;;;;;;1.33;0.27;;;;;;;;;;5029889;28;20201;-73
2022/02/19 07:02:36;;;;;;;1.37;0.73;;;;;;;;;;5030513;28;20220;-71
2022/02/19 07:05:03;;;;;;;1.47;1.07;;;;;;;;;;5029024;28;20204;-71
2022/02/19 07:07:31;;;;;;;2.77;0.37;;;;;;;;;;5024383;28;20206;-71
2022/02/19 07:09:58;;;;;;;0.20;0.17;;;;;;;;;;5031859;28;20201;-72
2022/02/19 07:12:26;;;;;;;0.53;0.53;;;;;;;;;;5028967;28;20209;-72
2022/02/19 07:14:55;;;;;;;5.93;0.73;;;;;;;;;;5027722;28;20676;-72
2022/02/19 07:17:22;;;;;;;3.50;1.03;;;;;;;;;;5029128;28;20274;-71
2022/02/19 07:19:49;;;;;;;1.07;0.30;;;;;;;;;;5027951;28;20210;-72
2022/02/19 07:22:17;;;;;;;1.57;0.47;;;;;;;;;;5028708;28;20283;-71
2022/02/19 07:24:44;;;;;;;0.60;0.30;;;;;;;;;;5030383;28;20647;-72
2022/02/19 07:27:11;;;;;;;1.90;0.87;;;;;;;;;;5030508;28;20196;-72
2022/02/19 07:29:39;;;;;;;2.63;0.57;;;;;;;;;;5028852;28;20197;-71
2022/02/19 07:32:09;;;;;;;6.93;1.20;;;;;;;;;;5029375;28;20258;-71
2022/02/19 07:34:37;;;;;;;1.53;1.03;;;;;;;;;;5030037;28;20296;-71
2022/02/19 07:37:04;;;;;;;2.70;0.97;;;;;;;;;;5030620;28;20238;-72
2022/02/19 07:39:32;;;;;;;0.53;0.10;;;;;;;;;;5027314;28;20226;-71
2022/02/19 07:42:00;;;;;;;3.73;0.63;;;;;;;;;;5030492;28;20195;-71
2022/02/19 07:44:28;;;;;;;0.73;0.57;;;;;;;;;;5030405;28;20195;-72
2022/02/19 07:46:55;;;;;;;0.97;0.63;;;;;;;;;;5029378;28;20200;-71
2022/02/19 08:00:24;;;;;;;2.30;0.67;;;;;;;;;;5029259;28;20200;-72
2022/02/19 08:02:52;;;;;;;2.83;0.37;;;;;;;;;;5030137;28;20655;-72
2022/02/19 08:05:20;;;;;;;0.30;0.30;;;;;;;;;;5028985;28;20201;-73
2022/02/19 08:07:48;;;;;;;0.20;0.13;;;;;;;;;;5028408;28;20197;-71
2022/02/19 08:10:15;;;;;;;1.90;0.30;;;;;;;;;;5030591;28;20567;-72
2022/02/19 08:12:42;;;;;;;1.33;1.13;;;;;;;;;;5028146;28;20208;-74
2022/02/19 08:15:10;;;;;;;3.77;0.40;;;;;;;;;;5027708;28;20215;-70
2022/02/19 08:17:38;;;;;;;0.30;0.20;;;;;;;;;;5030618;28;20583;-73
2022/02/19 08:20:06;;;;;;;1.60;0.53;;;;;;;;;;5032546;28;20562;-73
2022/02/19 08:22:35;;;;;;;0.00;0.00;;;;;;;;;;5029862;28;20201;-71
2022/02/19 08:25:02;;;;;;;8.93;0.67;;;;;;;;;;5032186;28;20577;-71
2022/02/19 08:27:29;;;;;;;2.27;0.67;;;;;;;;;;5030208;28;20200;-70
2022/02/19 08:29:57;;;;;;;0.30;0.30;;;;;;;;;;5028022;28;20266;-72
2022/02/19 08:32:24;;;;;;;0.10;0.10;;;;;;;;;;5032655;28;20562;-71
2022/02/19 08:34:52;;;;;;;8.03;0.73;;;;;;;;;;5032090;28;20296;-71
2022/02/19 08:37:19;;;;;;;0.13;0.07;;;;;;;;;;5031685;28;20230;-70
2022/02/19 08:39:48;;;;;;;0.17;0.17;;;;;;;;;;5032281;28;20209;-72
2022/02/19 08:42:15;;;;;;;3.57;0.70;;;;;;;;;;5034023;28;20295;-70
2022/02/19 08:44:43;;;;;;;1.80;1.67;;;;;;;;;;5033744;28;20196;-70
2022/02/19 08:47:10;;;;;;;3.53;0.93;;;;;;;;;;5032704;28;20204;-70
2022/02/19 08:49:37;;;;;;;2.90;0.53;;;;;;;;;;5032108;28;20208;-70
2022/02/19 08:52:05;;;;;;;1.70;0.30;;;;;;;;;;5030956;28;20203;-70
2022/02/19 08:54:34;;;;;;;11.83;0.83;;;;;;;;;;5030519;28;20196;-71
2022/02/19 08:57:02;;;;;;;1.40;0.87;;;;;;;;;;5030825;28;20665;-70
2022/02/19 08:59:30;;;;;;;0.27;0.17;;;;;;;;;;5030246;28;20196;-71
2022/02/19 09:01:58;;;;;;;0.60;0.53;;;;;;;;;;5033084;28;20255;-72
2022/02/19 09:04:25;;;;;;;0.70;0.30;;;;;;;;;;5031244;28;20205;-71
2022/02/19 09:06:53;;;;;;;1.40;0.73;;;;;;;;;;5030906;28;20196;-70
2022/02/19 09:09:20;;;;;;;1.00;0.73;;;;;;;;;;5027313;28;20295;-71
2022/02/19 09:11:48;;;;;;;0.50;0.50;;;;;;;;;;5023915;28;20208;-70
2022/02/19 09:14:17;;;;;;;1.03;0.70;;;;;;;;;;5026906;28;20227;-71
2022/02/19 09:16:45;;;;;;;0.20;0.20;;;;;;;;;;5030078;28;20196;-71
2022/02/19 09:19:12;;;;;;;0.20;0.20;;;;;;;;;;5032596;28;20279;-71
2022/02/19 09:21:42;;;;;;;1.37;0.40;;;;;;;;;;5030587;28;20200;-69
2022/02/19 09:24:10;;;;;;;2.10;0.40;;;;;;;;;;5034035;28;20203;-69
2022/02/19 09:26:37;;;;;;;0.07;0.07;;;;;;;;;;5034300;28;20200;-69
2022/02/19 09:29:05;;;;;;;0.37;0.37;;;;;;;;;;5031079;28;20582;-68
2022/02/19 09:31:33;;;;;;;2.53;1.80;;;;;;;;;;5032755;28;20642;-71
2022/02/19 09:34:01;;;;;;;0.93;0.67;;;;;;;;;;5024490;28;20195;-70
2022/02/19 09:36:29;;;;;;;0.87;0.27;;;;;;;;;;5025698;28;20621;-72
2022/02/19 09:38:56;;;;;;;0.33;0.33;;;;;;;;;;5030822;28;20231;-71
2022/02/19 09:41:24;;;;;;;14.03;1.03;;;;;;;;;;5022749;28;20206;-71
2022/02/19 09:43:51;;;;;;;0.50;0.50;;;;;;;;;;5024533;28;20208;-69
2022/02/19 09:46:18;;;;;;;1.87;0.40;;;;;;;;;;5021920;28;20296;-69
2022/02/19 09:48:48;;;;;;;3.93;1.30;;;;;;;;;;5022386;28;20208;-69
2022/02/19 09:51:15;;;;;;;2.07;0.70;;;;;;;;;;5028779;28;20677;-69
2022/02/19 09:53:43;;;;;;;8.70;0.70;;;;;;;;;;5031868;28;20669;-69
2022/02/19 09:56:11;;;;;;;3.10;0.73;;;;;;;;;;5031650;28;20197;-71
2022/02/19 09:58:43;;;;;;;0.80;0.77;;;;;;;;;;5023747;28;20227;-71
2022/02/19 10:01:17;;;;;;;2.63;0.37;;;;;;;;;;5024456;28;20236;-68
2022/02/19 10:03:47;;;;;;;5.73;0.90;;;;;;;;;;5025835;28;20200;-68
2022/02/19 10:06:15;;;;;;;1.20;0.70;;;;;;;;;;5027455;28;20201;-69
2022/02/19 10:08:43;;;;;;;0.30;0.30;;;;;;;;;;5036339;28;20890;-69
2022/02/19 10:11:14;;;;;;;1.10;0.30;;;;;;;;;;5023159;28;20206;-69
2022/02/19 10:13:42;;;;;;;1.27;0.77;;;;;;;;;;5022271;28;20263;-68
2022/02/19 10:16:10;;;;;;;0.20;0.20;;;;;;;;;;5032316;28;20223;-69
2022/02/19 10:18:39;;;;;;;7.07;0.50;;;;;;;;;;5031939;28;20747;-69
2022/02/19 10:21:13;;;;;;;0.93;0.93;;;;;;;;;;5033043;28;20196;-70
2022/02/19 10:23:41;;;;;;;1.07;0.70;;;;;;;;;;5026985;28;20728;-71
2022/02/19 10:26:09;;;;;;;2.10;0.20;;;;;;;;;;5024609;28;20204;-69
2022/02/19 10:28:36;;;;;;;2.00;0.93;;;;;;;;;;5025855;28;20216;-69
2022/02/19 10:31:17;;;;;;;0.83;0.30;;;;;;;;;;5021869;28;20670;-68
2022/02/19 10:33:45;;;;;;;2.43;0.83;;;;;;;;;;5019548;28;20555;-68
2022/02/19 10:36:17;;;;;;;1.80;0.50;;;;;;;;;;5022876;28;20201;-69
2022/02/19 10:39:02;;;;;;;1.07;0.80;;;;;;;;;;5030461;28;20227;-71
2022/02/19 10:41:34;;;;;;;1.20;0.87;;;;;;;;;;5028133;28;20196;-72
2022/02/19 10:44:19;;;;;;;1.90;1.13;;;;;;;;;;5029733;28;20200;-68
2022/02/19 10:46:46;;;;;;;2.60;0.23;;;;;;;;;;5030647;28;20291;-72
2022/02/19 10:49:14;;;;;;;2.63;0.97;;;;;;;;;;5027217;28;20215;-72
2022/02/19 10:51:43;;;;;;;5.50;0.50;;;;;;;;;;5031324;28;21230;-71
2022/02/19 10:54:11;;;;;;;1.63;0.80;;;;;;;;;;5026034;28;20232;-71
2022/02/19 10:56:41;;;;;;;1.80;0.60;;;;;;;;;;5021697;28;20196;-70
2022/02/19 10:59:09;;;;;;;2.47;0.30;;;;;;;;;;5020862;28;20236;-70
2022/02/19 11:01:41;;;;;;;2.07;0.43;;;;;;;;;;5018711;28;20589;-71
2022/02/19 11:04:09;;;;;;;0.43;0.40;;;;;;;;;;5021475;28;20200;-71
2022/02/19 11:06:37;;;;;;;3.57;1.07;;;;;;;;;;5028860;28;20188;-70
2022/02/19 11:09:07;;;;;;;0.20;0.20;;;;;;;;;;5029165;28;20283;-71
2022/02/19 11:11:34;;;;;;;0.30;0.30;;;;;;;;;;5029253;28;20569;-71
2022/02/19 11:14:02;;;;;;;1.30;0.77;;;;;;;;;;5022900;28;20302;-71
2022/02/19 11:16:30;;;;;;;3.23;1.83;;;;;;;;;;5018301;28;20223;-72
2022/02/19 11:18:57;;;;;;;1.77;0.70;;;;;;;;;;5020005;28;20310;-72
2022/02/19 11:21:25;;;;;;;0.17;0.17;;;;;;;;;;5021342;28;20200;-71
2022/02/19 11:23:54;;;;;;;1.13;0.30;;;;;;;;;;5020569;28;20197;-72
2022/02/19 11:26:23;;;;;;;0.30;0.10;;;;;;;;;;5018865;28;20196;-72
2022/02/19 11:28:52;;;;;;;3.03;1.23;;;;;;;;;;5020419;28;20287;-72
2022/02/19 11:31:19;;;;;;;1.67;0.87;;;;;;;;;;5019862;28;20210;-72
2022/02/19 11:33:50;;;;;;;0.10;0.00;;;;;;;;;;5018621;28;20223;-74
2022/02/19 11:36:25;;;;;;;0.33;0.20;;;;;;;;;;5019331;28;20661;-71
2022/02/19 11:38:54;;;;;;;6.80;0.77;;;;;;;;;;5024655;28;20230;-71
2022/02/19 11:41:35;;;;;;;6.70;0.57;;;;;;;;;;5021282;28;20208;-72
2022/02/19 11:44:04;;;;;;;0.50;0.50;;;;;;;;;;5021352;28;20212;-71
2022/02/19 11:46:33;;;;;;;1.07;0.93;;;;;;;;;;5019679;28;20250;-71
2022/02/19 11:49:17;;;;;;;0.20;0.20;;;;;;;;;;5020683;28;20218;-71
2022/02/19 11:51:44;;;;;;;2.03;1.33;;;;;;;;;;5021351;28;20584;-71
2022/02/19 11:54:27;;;;;;;1.80;0.50;;;;;;;;;;5018515;28;20215;-75
2022/02/19 11:56:57;;;;;;;0.53;0.53;;;;;;;;;;5021080;28;20243;-72
2022/02/19 11:59:41;;;;;;;0.40;0.40;;;;;;;;;;5021215;28;20721;-75
2022/02/19 12:02:15;;;;;;;3.30;0.50;;;;;;;;;;5021624;28;20236;-74
2022/02/19 12:04:46;;;;;;;0.10;0.10;;;;;;;;;;5020057;28;20211;-73
2022/02/19 12:07:17;;;;;;;0.00;0.00;;;;;;;;;;5024929;28;20286;-72
2022/02/19 12:10:05;;;;;;;0.77;0.77;;;;;;;;;;5023024;28;20218;-73
2022/02/19 12:12:47;;;;;;;1.00;0.23;;;;;;;;;;5024053;28;20211;-73
2022/02/19 12:15:29;;;;;;;0.00;0.00;;;;;;;;;;5023263;28;20212;-72
2022/02/19 12:17:57;;;;;;;0.00;0.00;;;;;;;;;;5020478;28;20235;-72
2022/02/19 12:20:26;;;;;;;1.27;0.77;;;;;;;;;;5019641;28;20208;-73
2022/02/19 12:22:54;;;;;;;0.50;0.50;;;;;;;;;;5021256;28;20580;-73
2022/02/19 12:25:22;;;;;;;2.37;1.03;;;;;;;;;;5020821;28;20689;-73
2022/02/19 12:28:04;;;;;;;0.10;0.10;;;;;;;;;;5024096;28;20695;-72
2022/02/19 12:30:33;;;;;;;0.00;0.00;;;;;;;;;;5024041;28;20287;-71
2022/02/19 12:33:01;;;;;;;1.13;0.30;;;;;;;;;;5023767;28;20204;-73
2022/02/19 12:35:35;;;;;;;0.53;0.50;;;;;;;;;;5020615;28;20681;-74
2022/02/19 12:38:03;;;;;;;0.00;0.00;;;;;;;;;;5021495;28;20323;-73
2022/02/19 12:40:31;;;;;;;0.53;0.53;;;;;;;;;;5019821;28;20246;-72
2022/02/19 12:42:59;;;;;;;0.17;0.17;;;;;;;;;;5017603;28;20832;-73
2022/02/19 12:45:27;;;;;;;0.30;0.23;;;;;;;;;;5020120;28;20666;-73
2022/02/19 12:47:56;;;;;;;0.00;0.00;;;;;;;;;;5024517;28;20204;-73
2022/02/19 12:50:23;;;;;;;0.87;0.87;;;;;;;;;;5024006;28;20573;-72
2022/02/19 12:52:51;;;;;;;0.20;0.10;;;;;;;;;;5019267;28;20219;-72
2022/02/19 12:55:19;;;;;;;0.00;0.00;;;;;;;;;;5017618;28;20204;-79
2022/02/19 12:57:47;;;;;;;7.23;0.57;;;;;;;;;;5016565;28;20215;-74
2022/02/19 13:00:15;;;;;;;0.53;0.53;;;;;;;;;;5021081;28;20212;-74
2022/02/19 13:02:45;;;;;;;1.60;0.30;;;;;;;;;;5024058;28;20243;-72
2022/02/19 13:05:16;;;;;;;2.93;0.70;;;;;;;;;;5024464;28;20724;-83
2022/02/19 13:07:43;;;;;;;0.40;0.20;;;;;;;;;;5022866;28;20855;-75
2022/02/19 13:10:11;;;;;;;0.63;0.63;;;;;;;;;;5022958;28;20246;-76
2022/02/19 13:12:39;;;;;;;1.13;0.33;;;;;;;;;;5026905;28;20199;-76
2022/02/19 13:15:08;;;;;;;0.00;0.00;;;;;;;;;;5025886;28;20220;-74
2022/02/19 13:17:36;;;;;;;0.83;0.30;;;;;;;;;;5024073;28;20208;-74
2022/02/19 13:20:12;;;;;;;4.63;1.73;;;;;;;;;;5023151;28;20240;-80
2022/02/19 13:22:41;;;;;;;0.83;0.63;;;;;;;;;;5020632;28;20215;-86
2022/02/19 13:25:10;;;;;;;0.10;0.00;;;;;;;;;;5021905;28;20323;-76
2022/02/19 13:27:38;;;;;;;0.97;0.17;;;;;;;;;;5021935;28;20776;-74
2022/02/19 13:30:07;;;;;;;0.00;0.00;;;;;;;;;;5022348;28;20205;-77
2022/02/19 13:32:36;;;;;;;0.00;0.00;;;;;;;;;;5021615;28;20714;-74
2022/02/19 13:35:04;;;;;;;0.63;0.10;;;;;;;;;;5024703;28;20204;-74
2022/02/19 13:37:32;;;;;;;0.00;0.00;;;;;;;;;;5026988;28;20208;-74
2022/02/19 13:40:12;;;;;;;0.20;0.10;;;;;;;;;;5025243;28;20224;-71
2022/02/19 13:42:41;;;;;;;2.37;0.67;;;;;;;;;;5026616;28;20207;-75
2022/02/19 13:45:09;;;;;;;4.33;0.40;;;;;;;;;;5026909;28;20200;-77
2022/02/19 13:47:37;;;;;;;1.57;1.43;;;;;;;;;;5027142;28;20207;-77
2022/02/19 13:50:05;;;;;;;0.47;0.40;;;;;;;;;;5027057;28;20211;-81
2022/02/19 13:52:34;;;;;;;5.77;0.53;;;;;;;;;;5026667;28;20193;-75
2022/02/19 13:55:09;;;;;;;0.30;0.27;;;;;;;;;;5026557;28;20212;-75
2022/02/19 13:57:38;;;;;;;4.10;0.43;;;;;;;;;;5022705;28;20207;-76
2022/02/19 14:00:10;;;;;;;0.00;0.00;;;;;;;;;;5021656;28;20678;-76
2022/02/19 14:02:38;;;;;;;0.30;0.30;;;;;;;;;;5024406;28;20236;-76
2022/02/19 14:05:07;;;;;;;1.13;0.47;;;;;;;;;;5026889;28;20555;-73
2022/02/19 14:07:49;;;;;;;1.77;0.77;;;;;;;;;;5027379;28;20204;-75
2022/02/19 14:10:16;;;;;;;8.70;0.97;;;;;;;;;;5025986;28;20211;-71
2022/02/19 14:12:45;;;;;;;0.70;0.30;;;;;;;;;;5024411;28;20212;-76
2022/02/19 14:15:17;;;;;;;2.00;0.50;;;;;;;;;;5028588;28;20207;-72
2022/02/19 14:17:45;;;;;;;7.10;0.73;;;;;;;;;;5030652;28;20741;-77
2022/02/19 14:20:13;;;;;;;0.40;0.40;;;;;;;;;;5026389;28;20220;-82
2022/02/19 14:22:42;;;;;;;0.30;0.30;;;;;;;;;;5021151;28;20200;-78
2022/02/19 14:25:13;;;;;;;1.13;0.50;;;;;;;;;;5024619;28;20638;-77
2022/02/19 14:27:52;;;;;;;0.40;0.20;;;;;;;;;;5022428;28;20207;-80
2022/02/19 14:30:22;;;;;;;0.80;0.80;;;;;;;;;;5023226;28;20207;-72
2022/02/19 14:32:49;;;;;;;3.40;0.60;;;;;;;;;;5028429;28;20204;-78
2022/02/19 14:35:17;;;;;;;0.00;0.00;;;;;;;;;;5022374;28;20597;-76
2022/02/19 14:37:45;;;;;;;0.10;0.10;;;;;;;;;;5021074;28;20200;-75
2022/02/19 14:40:13;;;;;;;0.40;0.37;;;;;;;;;;5020451;28;20228;-71
2022/02/19 14:42:41;;;;;;;0.97;0.77;;;;;;;;;;5022144;28;20239;-71
2022/02/19 14:45:10;;;;;;;0.73;0.30;;;;;;;;;;5022017;28;20196;-73
2022/02/19 14:47:39;;;;;;;0.73;0.10;;;;;;;;;;5021675;28;20689;-71
2022/02/19 14:50:08;;;;;;;1.60;0.40;;;;;;;;;;5020020;28;20188;-72
2022/02/19 14:52:35;;;;;;;0.37;0.20;;;;;;;;;;5023635;28;20285;-72
2022/02/19 14:55:03;;;;;;;0.83;0.63;;;;;;;;;;5034041;28;20200;-71
2022/02/19 14:57:31;;;;;;;3.43;0.67;;;;;;;;;;5036900;28;20193;-71
2022/02/19 14:59:59;;;;;;;2.83;0.87;;;;;;;;;;5020988;28;20224;-71
2022/02/19 15:02:27;;;;;;;1.37;0.60;;;;;;;;;;5021180;28;20236;-72